sensor_id;sensor_type;location;lat;lon;timestamp;pressure;altitude;pressure_sealevel;temperature;humidity
25084;BME280;13075;55.682;37.564;2023-06-10T00:00:00;99897.19;;;21.52;42.08
25084;BME280;13075;55.682;37.564;2023-06-10T00:02:26;99892.94;;;21.35;42.39
25084;BME280;13075;55.682;37.564;2023-06-10T00:04:51;99899.75;;;21.00;43.03
25084;BME280;13075;55.682;37.564;2023-06-10T00:07:17;99894.53;;;20.99;43.12
25084;BME280;13075;55.682;37.564;2023-06-10T00:09:43;99887.91;;;21.17;42.93
25084;BME280;13075;55.682;37.564;2023-06-10T00:12:08;99890.56;;;21.06;43.07
25084;BME280;13075;55.682;37.564;2023-06-10T00:14:37;99884.81;;;21.40;42.49
25084;BME280;13075;55.682;37.564;2023-06-10T00:17:03;99885.34;;;21.32;42.56
25084;BME280;13075;55.682;37.564;2023-06-10T00:19:29;99900.16;;;20.87;43.36
25084;BME280;13075;55.682;37.564;2023-06-10T00:21:58;99898.13;;;21.04;43.12
25084;BME280;13075;55.682;37.564;2023-06-10T00:24:24;99899.38;;;21.19;43.12
25084;BME280;13075;55.682;37.564;2023-06-10T00:26:49;99904.47;;;21.10;43.20
25084;BME280;13075;55.682;37.564;2023-06-10T00:29:15;99918.59;;;20.54;44.39
25084;BME280;13075;55.682;37.564;2023-06-10T00:31:40;99913.81;;;20.92;43.60
25084;BME280;13075;55.682;37.564;2023-06-10T00:34:06;99918.19;;;20.98;43.54
25084;BME280;13075;55.682;37.564;2023-06-10T00:36:32;99924.03;;;21.07;43.20
25084;BME280;13075;55.682;37.564;2023-06-10T00:38:58;99926.94;;;21.00;43.17
25084;BME280;13075;55.682;37.564;2023-06-10T00:41:23;99928.84;;;20.46;43.60
25084;BME280;13075;55.682;37.564;2023-06-10T00:43:49;99934.00;;;21.28;42.51
25084;BME280;13075;55.682;37.564;2023-06-10T00:46:15;99936.00;;;20.79;43.36
25084;BME280;13075;55.682;37.564;2023-06-10T00:48:42;99930.63;;;21.11;42.76
25084;BME280;13075;55.682;37.564;2023-06-10T00:51:08;99933.03;;;21.07;42.81
25084;BME280;13075;55.682;37.564;2023-06-10T00:53:39;99945.22;;;21.05;42.86
25084;BME280;13075;55.682;37.564;2023-06-10T00:56:04;99948.53;;;21.07;42.91
25084;BME280;13075;55.682;37.564;2023-06-10T00:58:30;99946.72;;;21.18;42.78
25084;BME280;13075;55.682;37.564;2023-06-10T01:00:56;99947.47;;;20.86;43.60
25084;BME280;13075;55.682;37.564;2023-06-10T01:03:26;99957.53;;;20.59;44.08
25084;BME280;13075;55.682;37.564;2023-06-10T01:06:01;99948.53;;;20.85;43.38
25084;BME280;13075;55.682;37.564;2023-06-10T01:11:00;99963.78;;;21.08;43.56
25084;BME280;13075;55.682;37.564;2023-06-10T01:13:26;99964.69;;;21.19;43.48
25084;BME280;13075;55.682;37.564;2023-06-10T01:15:54;99959.88;;;21.04;43.66
25084;BME280;13075;55.682;37.564;2023-06-10T01:18:20;99961.31;;;20.58;44.65
25084;BME280;13075;55.682;37.564;2023-06-10T01:20:46;99956.50;;;21.14;43.89
25084;BME280;13075;55.682;37.564;2023-06-10T01:23:13;99964.31;;;21.37;43.56
25084;BME280;13075;55.682;37.564;2023-06-10T01:25:40;99963.13;;;21.28;43.63
25084;BME280;13075;55.682;37.564;2023-06-10T01:30:32;99979.69;;;21.21;44.15
25084;BME280;13075;55.682;37.564;2023-06-10T01:33:02;99973.44;;;20.99;44.58
25084;BME280;13075;55.682;37.564;2023-06-10T01:35:30;99978.59;;;21.22;44.41
25084;BME280;13075;55.682;37.564;2023-06-10T01:37:55;99982.28;;;20.84;44.98
25084;BME280;13075;55.682;37.564;2023-06-10T01:40:24;99989.41;;;20.64;45.22
25084;BME280;13075;55.682;37.564;2023-06-10T01:42:51;99978.06;;;21.25;44.71
25084;BME280;13075;55.682;37.564;2023-06-10T01:45:17;99978.84;;;21.21;44.60
25084;BME280;13075;55.682;37.564;2023-06-10T01:47:43;99975.16;;;21.32;44.39
25084;BME280;13075;55.682;37.564;2023-06-10T01:50:08;99985.28;;;21.09;45.01
25084;BME280;13075;55.682;37.564;2023-06-10T01:52:34;100002.94;;;20.85;45.49
25084;BME280;13075;55.682;37.564;2023-06-10T01:55:00;99992.88;;;21.07;45.25
25084;BME280;13075;55.682;37.564;2023-06-10T01:57:25;100001.66;;;21.15;45.06
25084;BME280;13075;55.682;37.564;2023-06-10T01:59:52;100005.31;;;20.77;46.28
25084;BME280;13075;55.682;37.564;2023-06-10T02:02:17;100003.09;;;21.22;45.39
25084;BME280;13075;55.682;37.564;2023-06-10T02:04:43;100003.56;;;21.46;45.13
25084;BME280;13075;55.682;37.564;2023-06-10T02:07:08;99996.56;;;21.55;44.92
25084;BME280;13075;55.682;37.564;2023-06-10T02:09:34;100013.00;;;21.06;45.79
25084;BME280;13075;55.682;37.564;2023-06-10T02:12:03;100017.34;;;20.37;47.08
25084;BME280;13075;55.682;37.564;2023-06-10T02:14:30;100014.53;;;20.97;46.15
25084;BME280;13075;55.682;37.564;2023-06-10T02:16:56;100012.19;;;20.84;46.18
25084;BME280;13075;55.682;37.564;2023-06-10T02:19:22;100023.47;;;20.93;46.45
25084;BME280;13075;55.682;37.564;2023-06-10T02:21:48;100025.53;;;20.86;46.49
25084;BME280;13075;55.682;37.564;2023-06-10T02:24:14;100016.22;;;21.30;45.74
25084;BME280;13075;55.682;37.564;2023-06-10T02:26:40;100021.31;;;20.73;46.67
25084;BME280;13075;55.682;37.564;2023-06-10T02:29:06;100019.34;;;20.47;46.89
25084;BME280;13075;55.682;37.564;2023-06-10T02:31:31;100026.13;;;20.44;47.06
25084;BME280;13075;55.682;37.564;2023-06-10T02:34:01;100023.84;;;20.36;47.21
25084;BME280;13075;55.682;37.564;2023-06-10T02:36:29;100026.31;;;20.60;46.72
25084;BME280;13075;55.682;37.564;2023-06-10T02:38:54;100031.31;;;20.46;46.91
25084;BME280;13075;55.682;37.564;2023-06-10T02:41:21;100029.41;;;20.68;46.22
25084;BME280;13075;55.682;37.564;2023-06-10T02:43:47;100031.84;;;20.26;46.92
25084;BME280;13075;55.682;37.564;2023-06-10T02:46:13;100027.69;;;20.62;46.59
25084;BME280;13075;55.682;37.564;2023-06-10T02:48:43;100026.50;;;20.31;47.13
25084;BME280;13075;55.682;37.564;2023-06-10T02:51:17;100034.84;;;20.68;46.42
25084;BME280;13075;55.682;37.564;2023-06-10T02:53:45;100035.03;;;20.40;46.12
25084;BME280;13075;55.682;37.564;2023-06-10T02:56:13;100045.66;;;20.41;46.26
25084;BME280;13075;55.682;37.564;2023-06-10T02:58:38;100045.78;;;20.13;46.81
25084;BME280;13075;55.682;37.564;2023-06-10T03:01:05;100045.28;;;20.33;46.16
25084;BME280;13075;55.682;37.564;2023-06-10T03:03:40;100037.91;;;20.72;45.69
25084;BME280;13075;55.682;37.564;2023-06-10T03:06:10;100042.81;;;20.53;45.37
25084;BME280;13075;55.682;37.564;2023-06-10T03:08:36;100047.69;;;20.73;45.43
25084;BME280;13075;55.682;37.564;2023-06-10T03:11:07;100046.19;;;20.38;45.75
25084;BME280;13075;55.682;37.564;2023-06-10T03:13:33;100049.31;;;20.30;45.53
25084;BME280;13075;55.682;37.564;2023-06-10T03:15:59;100048.88;;;20.60;45.60
25084;BME280;13075;55.682;37.564;2023-06-10T03:18:26;100040.47;;;21.32;44.05
25084;BME280;13075;55.682;37.564;2023-06-10T03:20:52;100041.56;;;21.62;43.33
25084;BME280;13075;55.682;37.564;2023-06-10T03:23:18;100044.03;;;21.64;43.33
25084;BME280;13075;55.682;37.564;2023-06-10T03:25:44;100044.34;;;22.04;42.88
25084;BME280;13075;55.682;37.564;2023-06-10T03:28:14;100037.47;;;21.97;42.74
25084;BME280;13075;55.682;37.564;2023-06-10T03:30:40;100048.50;;;22.64;41.56
25084;BME280;13075;55.682;37.564;2023-06-10T03:33:06;100048.94;;;22.46;41.82
25084;BME280;13075;55.682;37.564;2023-06-10T03:35:32;100049.72;;;22.93;40.68
25084;BME280;13075;55.682;37.564;2023-06-10T03:37:58;100050.13;;;23.92;39.77
25084;BME280;13075;55.682;37.564;2023-06-10T03:40:24;100042.22;;;27.20;34.86
25084;BME280;13075;55.682;37.564;2023-06-10T03:42:50;100048.06;;;25.95;35.46
25084;BME280;13075;55.682;37.564;2023-06-10T03:45:17;100057.06;;;24.74;37.12
25084;BME280;13075;55.682;37.564;2023-06-10T03:47:44;100052.03;;;23.56;39.34
25084;BME280;13075;55.682;37.564;2023-06-10T03:50:13;100059.25;;;25.31;37.06
25084;BME280;13075;55.682;37.564;2023-06-10T03:52:41;100055.91;;;25.78;35.39
25084;BME280;13075;55.682;37.564;2023-06-10T03:55:07;100057.59;;;25.30;36.35
25084;BME280;13075;55.682;37.564;2023-06-10T03:57:33;100052.31;;;23.55;38.45
25084;BME280;13075;55.682;37.564;2023-06-10T03:59:58;100060.34;;;22.94;38.82
25084;BME280;13075;55.682;37.564;2023-06-10T04:02:24;100064.53;;;23.17;38.93
25084;BME280;13075;55.682;37.564;2023-06-10T04:04:50;100062.25;;;22.84;39.28
25084;BME280;13075;55.682;37.564;2023-06-10T04:07:16;100073.75;;;22.44;40.10
25084;BME280;13075;55.682;37.564;2023-06-10T04:09:42;100072.28;;;22.68;40.20
25084;BME280;13075;55.682;37.564;2023-06-10T04:12:07;100070.13;;;22.75;40.22
25084;BME280;13075;55.682;37.564;2023-06-10T04:14:35;100073.06;;;22.64;40.31
25084;BME280;13075;55.682;37.564;2023-06-10T04:17:04;100082.38;;;22.26;41.05
25084;BME280;13075;55.682;37.564;2023-06-10T04:19:32;100070.47;;;21.68;41.85
25084;BME280;13075;55.682;37.564;2023-06-10T04:21:57;100067.66;;;22.22;40.97
25084;BME280;13075;55.682;37.564;2023-06-10T04:24:23;100067.38;;;21.87;41.84
25084;BME280;13075;55.682;37.564;2023-06-10T04:26:49;100069.44;;;22.06;41.31
25084;BME280;13075;55.682;37.564;2023-06-10T04:29:15;100077.00;;;22.41;40.82
25084;BME280;13075;55.682;37.564;2023-06-10T04:31:41;100070.00;;;22.50;40.33
25084;BME280;13075;55.682;37.564;2023-06-10T04:34:08;100072.66;;;22.40;40.47
25084;BME280;13075;55.682;37.564;2023-06-10T04:36:33;100075.31;;;21.88;40.73
25084;BME280;13075;55.682;37.564;2023-06-10T04:38:59;100080.50;;;22.31;40.18
25084;BME280;13075;55.682;37.564;2023-06-10T04:41:27;100084.03;;;22.79;39.33
25084;BME280;13075;55.682;37.564;2023-06-10T04:43:53;100088.66;;;22.68;39.38
25084;BME280;13075;55.682;37.564;2023-06-10T04:46:19;100079.78;;;22.04;39.81
25084;BME280;13075;55.682;37.564;2023-06-10T04:48:45;100089.50;;;22.79;39.12
25084;BME280;13075;55.682;37.564;2023-06-10T04:51:12;100089.78;;;22.82;38.88
25084;BME280;13075;55.682;37.564;2023-06-10T04:53:38;100087.06;;;22.35;39.63
25084;BME280;13075;55.682;37.564;2023-06-10T04:56:04;100096.41;;;22.91;39.37
25084;BME280;13075;55.682;37.564;2023-06-10T04:58:29;100088.63;;;22.63;39.04
25084;BME280;13075;55.682;37.564;2023-06-10T05:00:55;100093.66;;;22.86;38.92
25084;BME280;13075;55.682;37.564;2023-06-10T05:03:20;100093.91;;;22.90;38.86
25084;BME280;13075;55.682;37.564;2023-06-10T05:05:46;100092.16;;;22.64;39.11
25084;BME280;13075;55.682;37.564;2023-06-10T05:08:11;100102.38;;;22.42;38.90
25084;BME280;13075;55.682;37.564;2023-06-10T05:10:37;100102.88;;;22.75;38.31
25084;BME280;13075;55.682;37.564;2023-06-10T05:13:02;100102.69;;;22.45;39.13
25084;BME280;13075;55.682;37.564;2023-06-10T05:15:28;100098.56;;;22.38;39.40
25084;BME280;13075;55.682;37.564;2023-06-10T05:17:55;100094.81;;;23.11;38.70
25084;BME280;13075;55.682;37.564;2023-06-10T05:20:21;100095.13;;;23.24;38.11
25084;BME280;13075;55.682;37.564;2023-06-10T05:22:47;100106.84;;;23.10;38.34
25084;BME280;13075;55.682;37.564;2023-06-10T05:25:12;100090.47;;;23.15;38.35
25084;BME280;13075;55.682;37.564;2023-06-10T05:27:37;100097.56;;;23.26;38.56
25084;BME280;13075;55.682;37.564;2023-06-10T05:30:04;100106.94;;;23.45;38.41
25084;BME280;13075;55.682;37.564;2023-06-10T05:32:30;100095.91;;;23.05;38.18
25084;BME280;13075;55.682;37.564;2023-06-10T05:34:55;100105.50;;;23.27;38.09
25084;BME280;13075;55.682;37.564;2023-06-10T05:37:21;100104.78;;;23.77;37.37
25084;BME280;13075;55.682;37.564;2023-06-10T05:39:46;100116.78;;;23.46;37.94
25084;BME280;13075;55.682;37.564;2023-06-10T05:42:12;100108.50;;;23.26;37.83
25084;BME280;13075;55.682;37.564;2023-06-10T05:44:37;100110.22;;;23.47;37.45
25084;BME280;13075;55.682;37.564;2023-06-10T05:47:03;100124.34;;;23.24;37.71
25084;BME280;13075;55.682;37.564;2023-06-10T05:49:28;100115.06;;;23.20;37.93
25084;BME280;13075;55.682;37.564;2023-06-10T05:51:54;100120.38;;;23.87;37.13
25084;BME280;13075;55.682;37.564;2023-06-10T05:54:21;100118.72;;;23.55;37.45
25084;BME280;13075;55.682;37.564;2023-06-10T05:56:46;100119.38;;;23.16;38.19
25084;BME280;13075;55.682;37.564;2023-06-10T05:59:12;100121.16;;;23.57;37.61
25084;BME280;13075;55.682;37.564;2023-06-10T06:01:37;100112.47;;;24.21;36.82
25084;BME280;13075;55.682;37.564;2023-06-10T06:04:02;100120.09;;;24.29;36.62
25084;BME280;13075;55.682;37.564;2023-06-10T06:06:28;100111.53;;;24.65;35.98
25084;BME280;13075;55.682;37.564;2023-06-10T06:08:53;100113.56;;;24.14;36.97
25084;BME280;13075;55.682;37.564;2023-06-10T06:11:19;100118.91;;;24.65;35.51
25084;BME280;13075;55.682;37.564;2023-06-10T06:13:44;100118.97;;;24.45;35.98
25084;BME280;13075;55.682;37.564;2023-06-10T06:16:10;100121.13;;;24.63;35.54
25084;BME280;13075;55.682;37.564;2023-06-10T06:18:35;100129.69;;;24.21;36.03
25084;BME280;13075;55.682;37.564;2023-06-10T06:21:01;100125.03;;;24.16;36.13
25084;BME280;13075;55.682;37.564;2023-06-10T06:23:26;100128.28;;;24.49;35.78
25084;BME280;13075;55.682;37.564;2023-06-10T06:25:52;100126.06;;;24.61;35.33
25084;BME280;13075;55.682;37.564;2023-06-10T06:28:17;100133.06;;;25.02;35.39
25084;BME280;13075;55.682;37.564;2023-06-10T06:30:44;100130.69;;;24.70;35.74
25084;BME280;13075;55.682;37.564;2023-06-10T06:33:09;100132.72;;;25.14;34.82
25084;BME280;13075;55.682;37.564;2023-06-10T06:35:35;100129.88;;;24.60;35.07
25084;BME280;13075;55.682;37.564;2023-06-10T06:38:00;100139.44;;;24.67;35.27
25084;BME280;13075;55.682;37.564;2023-06-10T06:40:28;100142.34;;;25.06;35.02
25084;BME280;13075;55.682;37.564;2023-06-10T06:42:53;100131.38;;;26.33;33.46
25084;BME280;13075;55.682;37.564;2023-06-10T06:45:47;100145.13;;;25.94;33.43
25084;BME280;13075;55.682;37.564;2023-06-10T06:48:12;100146.56;;;25.86;33.25
25084;BME280;13075;55.682;37.564;2023-06-10T06:50:38;100164.69;;;25.33;33.70
25084;BME280;13075;55.682;37.564;2023-06-10T06:53:04;100148.47;;;24.73;34.78
25084;BME280;13075;55.682;37.564;2023-06-10T06:55:29;100149.03;;;24.85;34.77
25084;BME280;13075;55.682;37.564;2023-06-10T06:57:55;100143.03;;;32.29;27.35
25084;BME280;13075;55.682;37.564;2023-06-10T07:00:21;100129.13;;;39.41;21.47
25084;BME280;13075;55.682;37.564;2023-06-10T07:02:46;100135.84;;;41.75;19.69
25084;BME280;13075;55.682;37.564;2023-06-10T07:05:12;100145.72;;;38.55;19.69
25084;BME280;13075;55.682;37.564;2023-06-10T07:07:37;100141.63;;;36.01;21.71
25084;BME280;13075;55.682;37.564;2023-06-10T07:10:03;100144.91;;;43.50;17.02
25084;BME280;13075;55.682;37.564;2023-06-10T07:12:28;100144.63;;;45.27;15.58
25084;BME280;13075;55.682;37.564;2023-06-10T07:14:56;100142.44;;;47.55;14.02
25084;BME280;13075;55.682;37.564;2023-06-10T07:17:21;100140.88;;;47.31;13.76
25084;BME280;13075;55.682;37.564;2023-06-10T07:19:47;100126.19;;;51.33;12.61
25084;BME280;13075;55.682;37.564;2023-06-10T07:22:13;100131.03;;;51.11;12.29
25084;BME280;13075;55.682;37.564;2023-06-10T07:24:39;100124.19;;;41.77;16.53
25084;BME280;13075;55.682;37.564;2023-06-10T07:27:05;100133.28;;;36.29;20.03
25084;BME280;13075;55.682;37.564;2023-06-10T07:29:30;100132.47;;;35.60;20.08
25084;BME280;13075;55.682;37.564;2023-06-10T07:31:56;100145.78;;;33.93;22.14
25084;BME280;13075;55.682;37.564;2023-06-10T07:34:21;100151.91;;;33.65;22.57
25084;BME280;13075;55.682;37.564;2023-06-10T07:36:47;100144.84;;;41.37;17.33
25084;BME280;13075;55.682;37.564;2023-06-10T07:39:12;100145.09;;;37.16;19.00
25084;BME280;13075;55.682;37.564;2023-06-10T07:41:38;100150.28;;;33.64;21.75
25084;BME280;13075;55.682;37.564;2023-06-10T07:44:03;100153.66;;;31.59;22.94
25084;BME280;13075;55.682;37.564;2023-06-10T07:46:29;100158.75;;;34.54;20.73
25084;BME280;13075;55.682;37.564;2023-06-10T07:48:54;100159.31;;;39.02;17.96
25084;BME280;13075;55.682;37.564;2023-06-10T07:51:20;100150.72;;;45.22;14.70
25084;BME280;13075;55.682;37.564;2023-06-10T07:53:45;100159.56;;;45.99;14.10
25084;BME280;13075;55.682;37.564;2023-06-10T07:56:11;100162.53;;;47.65;12.66
25084;BME280;13075;55.682;37.564;2023-06-10T07:58:36;100148.72;;;48.74;12.51
25084;BME280;13075;55.682;37.564;2023-06-10T08:01:01;100164.13;;;48.41;11.78
25084;BME280;13075;55.682;37.564;2023-06-10T08:03:27;100155.09;;;49.55;11.67
25084;BME280;13075;55.682;37.564;2023-06-10T08:05:53;100168.41;;;47.74;12.59
25084;BME280;13075;55.682;37.564;2023-06-10T08:08:18;100148.97;;;44.32;14.10
25084;BME280;13075;55.682;37.564;2023-06-10T08:10:43;100147.16;;;44.67;14.00
25084;BME280;13075;55.682;37.564;2023-06-10T08:13:09;100144.91;;;42.51;15.39
25084;BME280;13075;55.682;37.564;2023-06-10T08:15:35;100159.13;;;37.70;18.19
25084;BME280;13075;55.682;37.564;2023-06-10T08:18:00;100170.78;;;33.93;20.54
25084;BME280;13075;55.682;37.564;2023-06-10T08:20:25;100168.72;;;33.02;21.10
25084;BME280;13075;55.682;37.564;2023-06-10T08:22:51;100175.31;;;31.65;21.41
25084;BME280;13075;55.682;37.564;2023-06-10T08:25:16;100177.38;;;34.98;18.68
25084;BME280;13075;55.682;37.564;2023-06-10T08:27:42;100168.69;;;40.25;16.27
25084;BME280;13075;55.682;37.564;2023-06-10T08:30:07;100175.94;;;43.15;14.44
25084;BME280;13075;55.682;37.564;2023-06-10T08:32:35;100158.09;;;41.36;15.25
25084;BME280;13075;55.682;37.564;2023-06-10T08:35:00;100178.69;;;38.69;17.26
25084;BME280;13075;55.682;37.564;2023-06-10T08:37:26;100178.06;;;34.95;19.84
25084;BME280;13075;55.682;37.564;2023-06-10T08:39:51;100189.34;;;32.20;21.89
25084;BME280;13075;55.682;37.564;2023-06-10T08:44:46;100201.31;;;30.24;23.29
25084;BME280;13075;55.682;37.564;2023-06-10T08:47:15;100194.66;;;30.03;23.54
25084;BME280;13075;55.682;37.564;2023-06-10T08:49:41;100199.97;;;28.50;24.29
25084;BME280;13075;55.682;37.564;2023-06-10T08:52:08;100200.72;;;27.25;25.08
25084;BME280;13075;55.682;37.564;2023-06-10T08:54:36;100196.81;;;27.07;25.46
25084;BME280;13075;55.682;37.564;2023-06-10T08:57:04;100199.88;;;27.85;25.68
25084;BME280;13075;55.682;37.564;2023-06-10T08:59:32;100192.84;;;27.98;24.03
25084;BME280;13075;55.682;37.564;2023-06-10T09:01:58;100197.81;;;28.79;23.92
25084;BME280;13075;55.682;37.564;2023-06-10T09:04:25;100194.63;;;27.89;24.04
25084;BME280;13075;55.682;37.564;2023-06-10T09:06:50;100204.13;;;28.66;24.03
25084;BME280;13075;55.682;37.564;2023-06-10T09:09:16;100200.69;;;29.01;23.38
25084;BME280;13075;55.682;37.564;2023-06-10T09:11:43;100208.47;;;28.02;23.81
25084;BME280;13075;55.682;37.564;2023-06-10T09:14:08;100207.81;;;27.26;24.82
25084;BME280;13075;55.682;37.564;2023-06-10T09:16:34;100214.34;;;26.53;25.00
25084;BME280;13075;55.682;37.564;2023-06-10T09:18:59;100207.72;;;26.26;25.94
25084;BME280;13075;55.682;37.564;2023-06-10T09:21:25;100214.53;;;26.62;25.37
25084;BME280;13075;55.682;37.564;2023-06-10T09:23:51;100211.06;;;26.51;25.77
25084;BME280;13075;55.682;37.564;2023-06-10T09:26:16;100206.78;;;27.45;25.23
25084;BME280;13075;55.682;37.564;2023-06-10T09:28:48;100210.25;;;27.74;24.67
25084;BME280;13075;55.682;37.564;2023-06-10T09:31:14;100203.38;;;28.28;24.37
25084;BME280;13075;55.682;37.564;2023-06-10T09:33:43;100200.78;;;28.50;23.37
25084;BME280;13075;55.682;37.564;2023-06-10T09:36:09;100212.09;;;28.81;23.47
25084;BME280;13075;55.682;37.564;2023-06-10T09:38:34;100210.00;;;27.71;24.02
25084;BME280;13075;55.682;37.564;2023-06-10T09:41:00;100217.59;;;26.89;25.24
25084;BME280;13075;55.682;37.564;2023-06-10T09:43:43;100223.78;;;26.42;25.46
25084;BME280;13075;55.682;37.564;2023-06-10T09:46:19;100221.78;;;26.53;25.20
25084;BME280;13075;55.682;37.564;2023-06-10T09:48:46;100217.53;;;27.84;26.01
25084;BME280;13075;55.682;37.564;2023-06-10T09:51:12;100211.50;;;26.92;24.94
25084;BME280;13075;55.682;37.564;2023-06-10T09:53:38;100220.19;;;26.47;26.06
25084;BME280;13075;55.682;37.564;2023-06-10T09:56:03;100217.78;;;26.35;27.14
25084;BME280;13075;55.682;37.564;2023-06-10T09:58:38;100232.66;;;25.90;27.17
25084;BME280;13075;55.682;37.564;2023-06-10T10:01:12;100233.69;;;25.40;27.49
25084;BME280;13075;55.682;37.564;2023-06-10T10:03:44;100232.25;;;25.63;27.75
25084;BME280;13075;55.682;37.564;2023-06-10T10:06:11;100232.63;;;25.47;27.71
25084;BME280;13075;55.682;37.564;2023-06-10T10:08:36;100229.19;;;25.06;28.54
25084;BME280;13075;55.682;37.564;2023-06-10T10:11:02;100243.47;;;25.67;27.26
25084;BME280;13075;55.682;37.564;2023-06-10T10:13:28;100239.09;;;25.61;27.16
25084;BME280;13075;55.682;37.564;2023-06-10T10:15:54;100229.50;;;24.84;28.33
25084;BME280;13075;55.682;37.564;2023-06-10T10:18:21;100238.34;;;25.40;27.63
25084;BME280;13075;55.682;37.564;2023-06-10T10:20:53;100251.25;;;25.98;27.30
25084;BME280;13075;55.682;37.564;2023-06-10T10:23:21;100242.16;;;25.59;26.97
25084;BME280;13075;55.682;37.564;2023-06-10T10:25:51;100240.78;;;25.57;27.13
25084;BME280;13075;55.682;37.564;2023-06-10T10:28:17;100237.50;;;25.60;26.91
25084;BME280;13075;55.682;37.564;2023-06-10T10:30:45;100235.22;;;26.21;26.80
25084;BME280;13075;55.682;37.564;2023-06-10T10:36:09;100228.88;;;26.54;26.71
25084;BME280;13075;55.682;37.564;2023-06-10T10:38:35;100218.53;;;26.75;26.29
25084;BME280;13075;55.682;37.564;2023-06-10T10:41:01;100222.66;;;26.43;26.27
25084;BME280;13075;55.682;37.564;2023-06-10T10:43:27;100223.75;;;26.09;26.19
25084;BME280;13075;55.682;37.564;2023-06-10T10:46:00;100234.16;;;25.68;27.04
25084;BME280;13075;55.682;37.564;2023-06-10T10:48:26;100225.84;;;25.09;28.07
25084;BME280;13075;55.682;37.564;2023-06-10T10:50:57;100230.22;;;25.20;26.99
25084;BME280;13075;55.682;37.564;2023-06-10T10:53:24;100237.38;;;25.16;27.11
25084;BME280;13075;55.682;37.564;2023-06-10T10:58:25;100246.66;;;25.15;27.16
25084;BME280;13075;55.682;37.564;2023-06-10T11:00:51;100226.97;;;25.13;26.87
25084;BME280;13075;55.682;37.564;2023-06-10T11:03:16;100231.50;;;25.37;27.50
25084;BME280;13075;55.682;37.564;2023-06-10T11:05:43;100236.63;;;26.13;25.95
25084;BME280;13075;55.682;37.564;2023-06-10T11:08:10;100235.44;;;26.29;25.51
25084;BME280;13075;55.682;37.564;2023-06-10T11:10:39;100242.31;;;26.60;26.43
25084;BME280;13075;55.682;37.564;2023-06-10T11:13:14;100234.34;;;26.25;26.60
25084;BME280;13075;55.682;37.564;2023-06-10T11:15:44;100237.91;;;25.82;26.48
25084;BME280;13075;55.682;37.564;2023-06-10T11:18:27;100232.75;;;24.96;27.36
25084;BME280;13075;55.682;37.564;2023-06-10T11:25:51;100239.25;;;25.25;27.50
25084;BME280;13075;55.682;37.564;2023-06-10T11:28:17;100240.13;;;25.11;27.35
25084;BME280;13075;55.682;37.564;2023-06-10T11:30:43;100244.31;;;25.67;26.51
25084;BME280;13075;55.682;37.564;2023-06-10T11:33:08;100244.88;;;25.59;26.53
25084;BME280;13075;55.682;37.564;2023-06-10T11:35:34;100246.22;;;26.49;25.39
25084;BME280;13075;55.682;37.564;2023-06-10T11:38:00;100245.09;;;26.22;25.33
25084;BME280;13075;55.682;37.564;2023-06-10T11:40:26;100246.88;;;25.92;24.79
25084;BME280;13075;55.682;37.564;2023-06-10T11:42:55;100244.03;;;26.08;24.60
25084;BME280;13075;55.682;37.564;2023-06-10T11:45:20;100233.72;;;26.33;23.85
25084;BME280;13075;55.682;37.564;2023-06-10T11:47:58;100240.41;;;26.22;25.62
25084;BME280;13075;55.682;37.564;2023-06-10T11:50:28;100232.72;;;26.24;24.56
25084;BME280;13075;55.682;37.564;2023-06-10T11:52:53;100234.44;;;26.49;24.65
25084;BME280;13075;55.682;37.564;2023-06-10T11:55:21;100236.47;;;26.67;25.15
25084;BME280;13075;55.682;37.564;2023-06-10T11:57:46;100230.81;;;26.25;26.86
25084;BME280;13075;55.682;37.564;2023-06-10T12:00:12;100250.56;;;25.78;25.85
25084;BME280;13075;55.682;37.564;2023-06-10T12:02:39;100248.66;;;24.59;26.16
25084;BME280;13075;55.682;37.564;2023-06-10T12:05:12;100241.28;;;24.80;26.47
25084;BME280;13075;55.682;37.564;2023-06-10T12:07:37;100245.09;;;24.78;26.72
25084;BME280;13075;55.682;37.564;2023-06-10T12:10:03;100244.81;;;25.00;26.62
25084;BME280;13075;55.682;37.564;2023-06-10T12:12:29;100237.72;;;24.54;26.75
25084;BME280;13075;55.682;37.564;2023-06-10T12:17:23;100251.91;;;24.76;26.37
25084;BME280;13075;55.682;37.564;2023-06-10T12:19:50;100249.47;;;24.90;26.33
25084;BME280;13075;55.682;37.564;2023-06-10T12:22:15;100254.91;;;25.10;25.57
25084;BME280;13075;55.682;37.564;2023-06-10T12:25:00;100255.44;;;25.86;25.41
25084;BME280;13075;55.682;37.564;2023-06-10T12:27:26;100244.19;;;25.87;25.03
25084;BME280;13075;55.682;37.564;2023-06-10T12:29:55;100250.97;;;26.00;24.80
25084;BME280;13075;55.682;37.564;2023-06-10T12:32:22;100246.78;;;26.13;24.70
25084;BME280;13075;55.682;37.564;2023-06-10T12:35:03;100241.78;;;26.25;25.68
25084;BME280;13075;55.682;37.564;2023-06-10T12:37:29;100246.84;;;25.97;24.79
25084;BME280;13075;55.682;37.564;2023-06-10T12:39:55;100240.75;;;26.11;24.79
25084;BME280;13075;55.682;37.564;2023-06-10T12:42:22;100241.19;;;26.28;24.90
25084;BME280;13075;55.682;37.564;2023-06-10T12:44:52;100240.63;;;25.87;25.02
25084;BME280;13075;55.682;37.564;2023-06-10T12:47:18;100230.84;;;25.66;25.59
25084;BME280;13075;55.682;37.564;2023-06-10T12:49:43;100231.03;;;25.25;25.79
25084;BME280;13075;55.682;37.564;2023-06-10T12:52:09;100236.28;;;25.02;26.51
25084;BME280;13075;55.682;37.564;2023-06-10T12:54:34;100229.53;;;24.49;27.25
25084;BME280;13075;55.682;37.564;2023-06-10T12:57:00;100239.63;;;24.84;27.05